Airport View

Enter AWOS ICAO identifier for current METAR.

ex. KFNL

KSRE 310235Z AUTO 08005KT 10SM 21/11 A3013 RMK AO2

31 May 2020 02:42

Frequency: 118.625

Phone: 405-382-0111

Other Area AWOS: KSNL - KCQB - KADH - KTIK

TAF KTIK 310100Z 3101/0107 VRB06KT 9999 FEW250 QNH3009INS TX30/3121Z TN15/3112Z